Metar Cercanos

 

LEPA - Palma De Mallorc, Spain
Distance from station: ONO 38km
Actualización: Wed, 12-May-2021 6:30am CEST
Few Clouds
Few Clouds
 Viento del NNE
Viento: NNE 6 km/h
Temperatura: 10°C
Rocío: 9°C
Humedad: 94%
Barómetro: 1017 hPa
Clouds: Few Clouds
Visibility: 10 km
Cloud details: Few Clouds 518 m
2021/05/12 04:30 LEPA 120430Z 03003KT 9999 FEW017 10/09 Q1017 NOSIG
LEMH - Mahon/Menorca Is, Spain
Distance from station: ENE 105km
Actualización: Wed, 12-May-2021 6:30am CEST
Despejado
Despejado
 Viento del OSO
Viento: OSO 9 km/h
Temperatura: 13°C
Rocío: 11°C
Humedad: 88%
Barómetro: 1017 hPa
Resumen: Despejado
Visibility: greater than 10 km
2021/05/12 04:30 LEMH 120430Z 24005KT CAVOK 13/11 Q1017
 
LEIB - Ibiza/Es Codola, Spain
Distance from station: OSO 165km
Actualización: Wed, 12-May-2021 6:30am CEST
Despejado
Despejado
 Viento del varies
Viento: varies 2 km/h
Temperatura: 15°C
Rocío: 14°C
Humedad: 94%
Barómetro: 1017 hPa
Resumen: Despejado
Visibility: greater than 10 km
2021/05/12 04:30 LEIB 120430Z VRB01KT CAVOK 15/14 Q1017 NOSIG
LEBL - Barcelona Airpor, Spain
Distance from station: NNO 225km
Actualización: Wed, 12-May-2021 6:30am CEST
Few Clouds
Few Clouds
 Viento del NNO
Viento: NNO 11 km/h
Temperatura: 11°C
Rocío: 8°C
Humedad: 82%
Barómetro: 1016 hPa
Clouds: Few Clouds
Visibility: 10 km
Cloud details: Few Clouds 762 m
2021/05/12 04:30 LEBL 120430Z 33006KT 9999 FEW025 11/08 Q1016 NOSIG
 
LEVC - Valencia (civ/Mi, Spain
Distance from station: NO 188km
Actualización: Wed, 12-May-2021 6:30am CEST
Despejado
Despejado
 Viento del S
Viento: S 6 km/h
Temperatura: 13°C
Rocío: 4°C
Humedad: 55%
Barómetro: 1017 hPa
Resumen: Despejado
Visibility: greater than 10 km
2021/05/12 04:30 LEVC 120430Z 17003KT 150V210 CAVOK 13/04 Q1017 NOSIG
LEGE - Gerona/Costa Bra, Spain
Distance from station: N 276km
Actualización: Wed, 12-May-2021 6:30am CEST

 Viento del calm
Viento: Calma
Visibility: 10 km
2021/05/12 04:30 LEGE 120430Z 00000KT 9999 2200 SCT018 07/06 Q1016
 
LEAL - Alicante/El Alte, Spain
Distance from station: OSO 344km
Actualización: Wed, 12-May-2021 6:30am CEST
Despejado
Despejado
 Viento del O
Viento: O 9 km/h
Temperatura: 13°C
Rocío: 5°C
Humedad: 59%
Barómetro: 1018 hPa
Resumen: Despejado
Visibility: greater than 10 km
2021/05/12 04:30 LEAL 120430Z 28005KT CAVOK 13/05 Q1018 NOSIG
LEAM - Almeria Airport, Spain
Distance from station: SSO 56km
Actualización: Wed, 12-May-2021 6:30am CEST
Despejado
Despejado
 Viento del varies
Viento: varies 2 km/h
Temperatura: 12°C
Rocío: 9°C
Humedad: 82%
Barómetro: 1019 hPa
Resumen: Despejado
Visibility: greater than 10 km
2021/05/12 04:30 LEAM 120430Z VRB01KT CAVOK 12/09 Q1019
 
LEZG - Zaragoza (mil/Ci, Spain
Distance from station: NO 431km
Actualización: Wed, 12-May-2021 6:30am CEST
Muy nuboso
Muy nuboso
 Viento del E
Viento: E 7 km/h
Temperatura: 12°C
Rocío: 6°C
Humedad: 67%
Barómetro: 1016 hPa
Clouds: Muy nuboso
Visibility: 10 km
Cloud details: Muy nuboso 2134 m
2021/05/12 04:30 LEZG 120430Z 08004KT 050V120 9999 BKN070 12/06 Q1016
LEMD - Madrid/Barajas, Spain
Distance from station: ONO 234km
Actualización: Wed, 12-May-2021 6:30am CEST
Parcialmente nuboso
Parcialmente nuboso
 Viento del SO
Viento: SO 17 km/h
Temperatura: 12°C
Rocío: 5°C
Humedad: 63%
Barómetro: 1017 hPa
Clouds: Parcialmente nuboso
Visibility: 10 km
Cloud details: Parcialmente nuboso 2134 m
2021/05/12 04:30 LEMD 120430Z 22009KT 170V250 9999 SCT070 12/05 Q1017 NOSIG
 
LEGR - Granada Airport, Spain
Distance from station: OSO 62km
Actualización: Wed, 12-May-2021 6:30am CEST
Despejado
Despejado
 Viento del varies
Viento: varies 2 km/h
Temperatura: 6°C
Rocío: 5°C
Humedad: 93%
Barómetro: 1021 hPa
Resumen: Despejado
Visibility: greater than 10 km
2021/05/12 04:30 LEGR 120430Z VRB01KT CAVOK 06/05 Q1021
LEMG - Malaga (civ/Mil), Spain
Distance from station: OSO 227km
Actualización: Wed, 12-May-2021 6:30am CEST
Despejado
Despejado
 Viento del O
Viento: O 24 km/h
Temperatura: 17°C
Rocío: 7°C
Humedad: 52%
Barómetro: 1019 hPa
Resumen: Despejado
Visibility: greater than 10 km
2021/05/12 04:30 LEMG 120430Z 28013KT CAVOK 17/07 Q1019 NOSIG
 
LEZL - Sevilla (civ/Mil, Spain
Distance from station: S 318km
Actualización: Wed, 12-May-2021 6:30am CEST
Despejado
Despejado
 Viento del calm
Viento: Calma
Temperatura: 11°C
Rocío: 9°C
Humedad: 88%
Barómetro: 1021 hPa
Resumen: Despejado
Visibility: greater than 10 km
2021/05/12 04:30 LEZL 120430Z 00000KT CAVOK 11/09 Q1021 NOSIG
LEVT - Vitoria, Spain
Distance from station: NO 226km
Actualización: Wed, 12-May-2021 6:30am CEST
Few Clouds
Few Clouds
 Viento del SO
Viento: SO 35 km/h, Racha: 56 km/h
Temperatura: 11°C
Rocío: 6°C
Humedad: 72%
Barómetro: 1013 hPa
Clouds: Few Clouds
Visibility: 10 km
Cloud details: Few Clouds 914 m
2021/05/12 04:30 LEVT 120430Z 23019G30KT 200V260 9999 FEW030 11/06 Q1013
 
LEBB - Bilbao/Sondica, Spain
Distance from station: NNO 235km
Actualización: Wed, 12-May-2021 6:30am CEST
Few Clouds
Few Clouds
 Viento del SSO
Viento: SSO 15 km/h, Racha: 33 km/h
Temperatura: 16°C
Rocío: 6°C
Humedad: 52%
Barómetro: 1012 hPa
Clouds: Few Clouds
Visibility: 10 km
Cloud details: Few Clouds 2134 m
2021/05/12 04:30 LEBB 120430Z 20008G18KT 140V250 9999 FEW070 16/06 Q1012 NOSIG
LESO - San Sebastian/Fu, Spain
Distance from station: N 231km
Actualización: Wed, 12-May-2021 6:30am CEST
Lluvia débil, Few clouds
Lluvia débil, Few clouds
 Viento del SO
Viento: SO 15 km/h
Temperatura: 14°C
Rocío: 9°C
Humedad: 72%
Barómetro: 1012 hPa
Resumen: Lluvia débil
Clouds: Few Clouds
Visibility: 10 km
Cloud details: Few Clouds 1524 m
2021/05/12 04:30 LESO 120430Z 22008KT 180V260 9999 -RA FEW050 14/09 Q1012
 
LEVD - Valladolid(Mil/C, Spain
Distance from station: ONO 239km
Actualización: Wed, 12-May-2021 6:30am CEST
Cubierto
Cubierto
 Viento del SO
Viento: SO 26 km/h
Temperatura: 8°C
Sensación frio: 4°C
Rocío: 5°C
Humedad: 82%
Barómetro: 1015 hPa
Clouds: Cubierto
Visibility: 10 km
Cloud details: Cubierto 640 m
2021/05/12 04:30 LEVD 120430Z AUTO 23014KT 9999 OVC021 08/05 Q1015
LESA - Salamanca (civ/M, Spain
Distance from station: ONO 349km
Actualización: Wed, 12-May-2021 6:30am CEST
Muy nuboso
Muy nuboso
 Viento del SO
Viento: SO 28 km/h
Temperatura: 8°C
Sensación frio: 4°C
Rocío: 5°C
Humedad: 82%
Barómetro: 1016 hPa
Clouds: Muy nuboso
Visibility: 10 km
Cloud details: Muy nuboso 762 m
2021/05/12 04:30 LESA 120430Z AUTO 22015KT 9999 BKN025 08/05 Q1016
 
LEXJ - Santander/Paraya, Spain
Distance from station: NNO 247km
Actualización: Wed, 12-May-2021 6:30am CEST
Despejado
Despejado
 Viento del SSO
Viento: SSO 22 km/h, Racha: 41 km/h
Temperatura: 15°C
Rocío: 6°C
Humedad: 55%
Barómetro: 1010 hPa
Resumen: Despejado
Visibility: greater than 10 km
2021/05/12 04:30 LEXJ 120430Z 21012G22KT 160V260 CAVOK 15/06 Q1010
LEAS - Asturias/Aviles, Spain
Distance from station: NO 214km
Actualización: Wed, 12-May-2021 6:30am CEST
Parcialmente nuboso
Parcialmente nuboso
 Viento del OSO
Viento: OSO 20 km/h
Temperatura: 14°C
Rocío: 6°C
Humedad: 59%
Barómetro: 1009 hPa
Clouds: Parcialmente nuboso
Visibility: 10 km
Cloud details: Parcialmente nuboso 1829 m
2021/05/12 04:30 LEAS 120430Z 24011KT 210V290 9999 SCT060 14/06 Q1009 NOSIG
 
LECO - La Coruna/Alvedr, Spain
Distance from station: ONO 222km
Actualización: Wed, 12-May-2021 6:30am CEST
Parcialmente nuboso
Parcialmente nuboso
 Viento del SO
Viento: SO 17 km/h, Racha: 35 km/h
Temperatura: 14°C
Rocío: 12°C
Humedad: 88%
Barómetro: 1009 hPa
Clouds: Parcialmente nuboso
Visibility: 10 km
Cloud details: Parcialmente nuboso 823 m
Parcialmente nuboso 1006 m
2021/05/12 04:30 LECO 120430Z 23009G19KT 190V300 9999 SCT027 SCT033 14/12 Q1009 NOSIG
LEVX - Vigo/Peinador, Spain
Distance from station: O 214km
Actualización: Wed, 12-May-2021 6:30am CEST
Lluvia, Muy nuboso
Lluvia, Muy nuboso
 Viento del SO
Viento: SO 22 km/h
Temperatura: 12°C
Rocío: 11°C
Humedad: 94%
Barómetro: 1014 hPa
Resumen: Lluvia
Clouds: Muy nuboso
Visibility: 3 km
Cloud details: Muy nuboso 366 m
Muy nuboso 732 m
Muy nuboso 945 m
2021/05/12 04:30 LEVX 120430Z 22012KT 170V270 3000 RA BKN012 BKN024 BKN031 12/11 Q1014 TEMPO -RA